Time;durP1;ratioP1;P1;durP2;ratioP2;P2;SDS_P1;SDS_P2;PMS_P1;PMS_P2;Temp;Humidity;BMP_temperature;BMP_pressure;BME280_temperature;BME280_humidity;BME280_pressure;Samples;Min_cycle;Max_cycle;Signal;HPM_P1;HPM_P2
2023/06/11 00:02:15;;;;;;;9.68;6.85;;;16.40;99.90;;;;;;5077448;28;20029;-42
2023/06/11 00:04:45;;;;;;;8.52;6.50;;;16.40;99.90;;;;;;5068492;28;20051;-42
2023/06/11 00:07:10;;;;;;;10.10;6.77;;;16.30;99.90;;;;;;5067198;28;20032;-42
2023/06/11 00:09:36;;;;;;;10.90;6.03;;;16.40;99.90;;;;;;5066827;28;20013;-42
2023/06/11 00:12:02;;;;;;;18.50;6.68;;;16.40;99.90;;;;;;5070244;28;20091;-42
2023/06/11 00:14:28;;;;;;;8.35;6.13;;;16.30;99.90;;;;;;5083864;28;20017;-41
2023/06/11 00:16:56;;;;;;;11.40;6.78;;;16.30;99.90;;;;;;5068052;28;20016;-42
2023/06/11 00:19:28;;;;;;;10.32;6.10;;;16.20;99.90;;;;;;5074967;28;20021;-43
2023/06/11 00:21:56;;;;;;;10.55;6.35;;;16.20;99.90;;;;;;5068378;28;20106;-41
2023/06/11 00:24:22;;;;;;;9.38;5.43;;;16.10;99.90;;;;;;5077238;28;20028;-43
2023/06/11 00:26:48;;;;;;;11.63;5.55;;;16.10;99.90;;;;;;5076074;28;20016;-42
2023/06/11 00:29:14;;;;;;;12.27;5.53;;;16.10;99.90;;;;;;5080150;28;20042;-42
2023/06/11 00:31:40;;;;;;;12.60;5.97;;;16.10;99.90;;;;;;5080502;28;20514;-42
2023/06/11 00:34:09;;;;;;;11.98;5.72;;;16.10;99.90;;;;;;5079054;28;20051;-42
2023/06/11 00:36:35;;;;;;;7.40;5.65;;;16.10;99.90;;;;;;5072971;28;20020;-42
2023/06/11 00:39:02;;;;;;;10.35;5.50;;;16.00;99.90;;;;;;5076871;28;20028;-42
2023/06/11 00:41:30;;;;;;;11.68;6.20;;;16.00;99.90;;;;;;5081942;28;20170;-42
2023/06/11 00:43:56;;;;;;;10.10;5.57;;;16.00;99.90;;;;;;5069728;28;20032;-41
2023/06/11 00:46:22;;;;;;;8.48;5.68;;;15.90;99.90;;;;;;5067662;28;20146;-42
2023/06/11 00:48:49;;;;;;;10.13;5.22;;;15.90;99.90;;;;;;5068455;28;20017;-42
2023/06/11 00:51:17;;;;;;;12.35;5.38;;;15.80;99.90;;;;;;5067238;28;20020;-44
2023/06/11 00:53:43;;;;;;;11.65;5.80;;;15.80;99.90;;;;;;5076836;28;20032;-45
2023/06/11 00:56:08;;;;;;;8.70;4.78;;;15.80;99.90;;;;;;5067925;28;20028;-42
2023/06/11 00:58:35;;;;;;;8.45;4.55;;;15.80;99.90;;;;;;5074078;28;20502;-44
2023/06/11 01:01:05;;;;;;;8.73;4.63;;;15.70;99.90;;;;;;5086767;28;20054;-42
2023/06/11 01:03:33;;;;;;;6.43;5.05;;;15.70;99.90;;;;;;5077064;28;20013;-43
2023/06/11 01:06:13;;;;;;;8.07;5.22;;;15.70;99.90;;;;;;5067649;28;20036;-45
2023/06/11 01:08:39;;;;;;;12.00;5.90;;;15.60;99.90;;;;;;5068309;28;20013;-42
2023/06/11 01:11:21;;;;;;;7.43;4.70;;;15.60;99.90;;;;;;5068050;28;20120;-42
2023/06/11 01:13:47;;;;;;;11.80;5.68;;;15.50;99.90;;;;;;5084572;28;20532;-41
2023/06/11 01:16:22;;;;;;;9.10;5.43;;;15.50;99.90;;;;;;5070983;28;20012;-41
2023/06/11 01:19:08;;;;;;;7.53;5.00;;;15.50;99.90;;;;;;5072337;28;20098;-42
2023/06/11 01:21:45;;;;;;;10.98;5.40;;;15.50;99.90;;;;;;5064037;28;20067;-41
2023/06/11 01:24:21;;;;;;;7.97;4.45;;;15.40;99.90;;;;;;5071770;28;20020;-41
2023/06/11 01:27:13;;;;;;;9.60;5.00;;;15.40;99.90;;;;;;5069899;28;20025;-42
2023/06/11 01:29:45;;;;;;;8.32;4.80;;;15.30;99.90;;;;;;5081498;28;20095;-41
2023/06/11 01:32:12;;;;;;;10.02;4.72;;;15.40;99.90;;;;;;5079587;28;20174;-42
2023/06/11 01:34:41;;;;;;;7.75;4.63;;;15.30;99.90;;;;;;5071636;28;20027;-42
2023/06/11 01:37:09;;;;;;;10.45;5.28;;;15.30;99.90;;;;;;5071332;28;20476;-45
2023/06/11 01:39:34;;;;;;;10.85;5.55;;;15.20;99.90;;;;;;5071415;28;20027;-43
2023/06/11 01:42:00;;;;;;;10.50;5.47;;;15.20;99.90;;;;;;5079459;28;20020;-42
2023/06/11 01:44:26;;;;;;;10.07;5.90;;;15.10;99.90;;;;;;5079312;28;20375;-43
2023/06/11 01:46:52;;;;;;;10.30;4.90;;;15.10;99.90;;;;;;5070334;28;20012;-42
2023/06/11 01:49:18;;;;;;;7.97;5.05;;;15.10;99.90;;;;;;5066575;28;20016;-42
2023/06/11 01:51:43;;;;;;;14.13;5.13;;;15.10;99.90;;;;;;5083116;28;20016;-42
2023/06/11 01:54:09;;;;;;;10.07;5.00;;;15.00;99.90;;;;;;5071992;28;20032;-42
2023/06/11 01:56:34;;;;;;;7.80;4.93;;;15.00;99.90;;;;;;5070559;28;20148;-41
2023/06/11 01:59:00;;;;;;;11.00;4.75;;;15.00;99.90;;;;;;5080277;28;20043;-43
2023/06/11 02:01:28;;;;;;;9.68;4.45;;;14.90;99.90;;;;;;5091099;28;20020;-42
2023/06/11 02:03:54;;;;;;;11.85;4.97;;;14.90;99.90;;;;;;5083072;28;20043;-41
2023/06/11 02:06:20;;;;;;;9.35;5.35;;;14.90;99.90;;;;;;5078580;28;20055;-43
2023/06/11 02:08:45;;;;;;;9.05;5.63;;;14.80;99.90;;;;;;5070972;28;20016;-43
2023/06/11 02:11:11;;;;;;;8.00;5.45;;;14.80;99.90;;;;;;5069546;28;20460;-42
2023/06/11 02:13:37;;;;;;;8.98;4.30;;;14.80;99.90;;;;;;5069570;28;20043;-42
2023/06/11 02:16:02;;;;;;;11.48;4.90;;;14.80;99.90;;;;;;5069971;28;20265;-45
2023/06/11 02:18:28;;;;;;;12.55;4.90;;;14.80;99.90;;;;;;5075589;28;20020;-41
2023/06/11 02:20:53;;;;;;;9.85;5.80;;;14.80;99.90;;;;;;5073631;28;20039;-42
2023/06/11 02:23:19;;;;;;;15.55;5.10;;;14.70;99.90;;;;;;5070363;28;20020;-43
2023/06/11 02:25:44;;;;;;;6.53;4.22;;;14.70;99.90;;;;;;5075987;28;20508;-42
2023/06/11 02:28:10;;;;;;;9.73;4.72;;;14.60;99.90;;;;;;5087851;28;20027;-42
2023/06/11 02:30:36;;;;;;;8.90;4.72;;;14.50;99.90;;;;;;5082729;28;20016;-42
2023/06/11 02:33:01;;;;;;;8.57;4.88;;;14.50;99.90;;;;;;5072693;28;20055;-42
2023/06/11 02:35:27;;;;;;;8.15;5.47;;;14.50;99.90;;;;;;5088863;28;20031;-43
2023/06/11 02:37:52;;;;;;;10.27;4.95;;;14.50;99.90;;;;;;5073963;28;20037;-43
2023/06/11 02:40:18;;;;;;;10.13;4.63;;;14.40;99.90;;;;;;5070409;28;20025;-41
2023/06/11 02:42:44;;;;;;;6.38;4.53;;;14.40;99.90;;;;;;5070120;28;20031;-41
2023/06/11 02:45:10;;;;;;;7.13;5.10;;;14.40;99.90;;;;;;5077515;28;20439;-43
2023/06/11 02:47:36;;;;;;;8.25;5.22;;;14.40;99.90;;;;;;5070181;28;20020;-43
2023/06/11 02:50:05;;;;;;;7.40;4.78;;;14.40;99.90;;;;;;5078597;28;20020;-43
2023/06/11 02:52:32;;;;;;;14.90;5.20;;;14.40;99.90;;;;;;5069068;28;20020;-43
2023/06/11 02:54:58;;;;;;;11.70;5.60;;;14.40;99.90;;;;;;5068219;28;20490;-43
2023/06/11 02:57:24;;;;;;;9.80;5.47;;;14.40;99.90;;;;;;5072541;28;20477;-42
2023/06/11 02:59:49;;;;;;;13.45;5.10;;;14.40;99.90;;;;;;5090459;28;20031;-42
2023/06/11 03:02:15;;;;;;;9.30;5.15;;;14.40;99.90;;;;;;5069901;28;20032;-42
2023/06/11 03:04:43;;;;;;;8.90;5.00;;;14.30;99.90;;;;;;5076049;28;20532;-41
2023/06/11 03:07:09;;;;;;;10.68;5.53;;;14.30;99.90;;;;;;5073063;28;20025;-43
2023/06/11 03:09:35;;;;;;;10.60;5.18;;;14.30;99.90;;;;;;5075972;28;20070;-42
2023/06/11 03:12:01;;;;;;;12.60;5.40;;;14.30;99.90;;;;;;5069664;28;20024;-42
2023/06/11 03:14:27;;;;;;;7.55;4.35;;;14.30;99.90;;;;;;5077071;28;20058;-42
2023/06/11 03:16:56;;;;;;;6.65;4.55;;;14.30;99.90;;;;;;5075866;28;20084;-42
2023/06/11 03:19:25;;;;;;;10.07;4.93;;;14.30;99.90;;;;;;5074059;28;20399;-43
2023/06/11 03:21:52;;;;;;;9.90;4.68;;;14.30;99.90;;;;;;5080776;28;20085;-47
2023/06/11 03:24:20;;;;;;;9.65;4.95;;;14.30;99.90;;;;;;5084747;28;20048;-44
2023/06/11 03:26:47;;;;;;;6.78;4.38;;;14.20;99.90;;;;;;5068527;28;20346;-43
2023/06/11 03:29:18;;;;;;;7.88;5.10;;;14.30;99.90;;;;;;5072105;28;20020;-41
2023/06/11 03:31:44;;;;;;;10.73;4.85;;;14.20;99.90;;;;;;5074108;28;20017;-42
2023/06/11 03:34:10;;;;;;;8.38;4.55;;;14.20;99.90;;;;;;5069981;28;20016;-41
2023/06/11 03:36:36;;;;;;;9.23;4.47;;;14.20;99.90;;;;;;5067869;28;20028;-45
2023/06/11 03:39:02;;;;;;;18.20;5.00;;;14.20;99.90;;;;;;5068591;28;20020;-42
2023/06/11 03:41:27;;;;;;;15.43;4.93;;;14.20;99.90;;;;;;5069267;28;20051;-41
2023/06/11 03:43:53;;;;;;;12.65;5.38;;;14.10;99.90;;;;;;5068040;28;20584;-44
2023/06/11 03:46:21;;;;;;;13.00;5.40;;;14.10;99.90;;;;;;5076543;28;20021;-42
2023/06/11 03:48:46;;;;;;;7.95;5.13;;;14.10;99.90;;;;;;5076393;28;20016;-42
2023/06/11 03:51:13;;;;;;;8.10;4.72;;;14.20;99.90;;;;;;5072317;28;20402;-43
2023/06/11 03:53:38;;;;;;;10.32;4.50;;;14.20;99.90;;;;;;5089145;28;20095;-42
2023/06/11 03:56:04;;;;;;;13.13;5.20;;;14.20;99.90;;;;;;5070205;28;20027;-44
2023/06/11 03:58:29;;;;;;;7.65;4.53;;;14.30;99.90;;;;;;5073390;28;20570;-42
2023/06/11 04:00:55;;;;;;;9.80;5.72;;;14.30;99.90;;;;;;5088593;28;20024;-41
2023/06/11 04:03:21;;;;;;;10.18;5.18;;;14.30;99.90;;;;;;5068695;28;20016;-41
2023/06/11 04:05:46;;;;;;;13.57;4.85;;;14.30;99.90;;;;;;5075383;28;20520;-42
2023/06/11 04:08:12;;;;;;;7.25;4.90;;;14.30;99.90;;;;;;5076512;28;20028;-42
2023/06/11 04:10:37;;;;;;;16.77;5.45;;;14.30;99.90;;;;;;5068791;28;20012;-41
2023/06/11 04:13:03;;;;;;;10.40;5.63;;;14.30;99.90;;;;;;5068822;28;20104;-44
2023/06/11 04:15:28;;;;;;;7.78;4.40;;;14.30;99.90;;;;;;5074917;28;20055;-42
2023/06/11 04:17:54;;;;;;;8.75;5.38;;;14.40;99.90;;;;;;5067946;28;20029;-42
2023/06/11 04:20:19;;;;;;;9.30;5.55;;;14.40;99.90;;;;;;5068322;28;20082;-41
2023/06/11 04:22:45;;;;;;;9.60;5.45;;;14.40;99.90;;;;;;5070439;28;20039;-42
2023/06/11 04:25:11;;;;;;;11.32;5.50;;;14.50;99.90;;;;;;5066394;28;20031;-43
2023/06/11 04:27:38;;;;;;;10.65;5.22;;;14.40;99.90;;;;;;5068056;28;20046;-42
2023/06/11 04:30:04;;;;;;;10.27;5.32;;;14.50;99.90;;;;;;5074020;28;20514;-45
2023/06/11 04:32:34;;;;;;;10.07;5.28;;;14.40;99.90;;;;;;5066818;28;20020;-43
2023/06/11 04:35:06;;;;;;;11.18;4.85;;;14.50;99.90;;;;;;5066889;28;20017;-42
2023/06/11 04:37:38;;;;;;;10.90;5.07;;;14.60;99.90;;;;;;5068334;28;20020;-43
2023/06/11 04:40:10;;;;;;;8.40;5.68;;;14.60;99.90;;;;;;5068156;28;20486;-42
2023/06/11 04:42:43;;;;;;;15.85;5.45;;;14.60;99.90;;;;;;5067209;28;20035;-44
2023/06/11 04:45:10;;;;;;;13.60;5.47;;;14.60;99.90;;;;;;5066675;28;20032;-42
2023/06/11 04:47:37;;;;;;;11.23;5.32;;;14.70;99.90;;;;;;5074625;28;20020;-45
2023/06/11 04:50:05;;;;;;;8.48;5.38;;;14.60;99.90;;;;;;5070290;28;20052;-42
2023/06/11 04:52:42;;;;;;;7.03;5.03;;;14.60;99.90;;;;;;5068333;28;20017;-43
2023/06/11 04:55:13;;;;;;;9.50;5.07;;;14.70;99.90;;;;;;5069281;28;20031;-42
2023/06/11 04:57:41;;;;;;;6.03;5.03;;;14.70;99.90;;;;;;5080562;28;20017;-42
2023/06/11 05:00:08;;;;;;;10.68;5.55;;;14.80;99.90;;;;;;5080326;28;20031;-42
2023/06/11 05:02:38;;;;;;;17.40;5.50;;;14.80;99.90;;;;;;5092381;28;20072;-43
2023/06/11 05:05:07;;;;;;;9.07;5.03;;;14.90;99.90;;;;;;5081509;28;20036;-42
2023/06/11 05:07:33;;;;;;;13.95;6.00;;;15.00;99.90;;;;;;5070454;28;20414;-42
2023/06/11 05:09:59;;;;;;;9.63;5.15;;;15.10;99.90;;;;;;5079215;28;20016;-42
2023/06/11 05:12:28;;;;;;;8.05;5.22;;;15.00;99.90;;;;;;5087824;28;20024;-41
2023/06/11 05:14:56;;;;;;;13.50;6.03;;;15.10;99.90;;;;;;5080863;28;20032;-42
2023/06/11 05:17:22;;;;;;;8.27;5.00;;;15.10;99.90;;;;;;5085509;28;20028;-43
2023/06/11 05:19:48;;;;;;;12.93;6.22;;;15.20;99.90;;;;;;5082045;28;20016;-43
2023/06/11 05:22:14;;;;;;;10.20;5.15;;;15.20;99.90;;;;;;5086464;28;20036;-44
2023/06/11 05:24:43;;;;;;;7.53;5.60;;;15.20;99.90;;;;;;5084515;28;20027;-42
2023/06/11 05:27:09;;;;;;;7.60;5.40;;;15.30;99.90;;;;;;5081429;28;20008;-43
2023/06/11 05:29:37;;;;;;;8.23;5.35;;;15.30;99.90;;;;;;5083797;28;20030;-45
2023/06/11 05:32:04;;;;;;;12.98;6.60;;;15.40;99.90;;;;;;5083274;28;20213;-43
2023/06/11 05:34:30;;;;;;;12.50;5.43;;;15.40;99.90;;;;;;5079934;28;20020;-43
2023/06/11 05:36:56;;;;;;;6.88;5.30;;;15.50;99.90;;;;;;5084756;28;20371;-43
2023/06/11 05:39:22;;;;;;;11.85;5.70;;;15.50;99.90;;;;;;5085222;28;20019;-43
2023/06/11 05:41:48;;;;;;;11.20;5.88;;;15.60;99.90;;;;;;5079648;28;20017;-42
2023/06/11 05:44:15;;;;;;;11.13;5.90;;;15.60;99.90;;;;;;5079536;28;20029;-42
2023/06/11 05:46:49;;;;;;;7.35;4.85;;;15.70;99.90;;;;;;5085390;28;20397;-42
2023/06/11 05:49:15;;;;;;;7.65;5.00;;;15.70;99.90;;;;;;5088386;28;20438;-41
2023/06/11 05:51:41;;;;;;;13.05;4.80;;;15.80;99.90;;;;;;5085557;28;20123;-42
2023/06/11 05:54:07;;;;;;;10.50;5.05;;;15.80;99.90;;;;;;5080598;28;20111;-43
2023/06/11 05:56:34;;;;;;;8.32;4.80;;;15.90;99.90;;;;;;5078179;28;20047;-45
2023/06/11 05:59:00;;;;;;;8.25;5.60;;;16.00;99.90;;;;;;5061212;28;20098;-43
2023/06/11 06:01:26;;;;;;;10.00;5.70;;;16.00;99.90;;;;;;5088268;28;20449;-45
2023/06/11 06:03:52;;;;;;;16.15;6.55;;;16.10;99.90;;;;;;5090830;28;20382;-43
2023/06/11 06:06:18;;;;;;;12.38;6.13;;;16.20;99.90;;;;;;5084930;28;20497;-43
2023/06/11 06:08:44;;;;;;;8.13;5.95;;;16.20;99.90;;;;;;5079080;28;20478;-45
2023/06/11 06:11:10;;;;;;;13.95;6.13;;;16.30;99.90;;;;;;5082220;28;20027;-44
2023/06/11 06:13:36;;;;;;;15.60;6.55;;;16.30;99.90;;;;;;5077418;28;20054;-43
2023/06/11 06:16:02;;;;;;;14.43;6.35;;;16.50;99.90;;;;;;5077575;28;20044;-44
2023/06/11 06:18:29;;;;;;;12.10;5.57;;;16.60;99.90;;;;;;5079232;28;20469;-43
2023/06/11 06:20:55;;;;;;;11.50;5.95;;;16.70;99.90;;;;;;5070897;28;20402;-44
2023/06/11 06:23:21;;;;;;;13.13;5.10;;;16.80;99.90;;;;;;5084705;28;20421;-47
2023/06/11 06:25:47;;;;;;;8.65;5.75;;;16.90;99.90;;;;;;5078148;28;20020;-43
2023/06/11 06:28:14;;;;;;;11.57;5.82;;;17.00;99.90;;;;;;5076340;28;20473;-44
2023/06/11 06:30:39;;;;;;;11.98;6.10;;;17.10;99.90;;;;;;5077315;28;20385;-44
2023/06/11 06:33:08;;;;;;;10.32;5.78;;;17.20;99.90;;;;;;5070525;28;20032;-45
2023/06/11 06:35:34;;;;;;;9.43;5.50;;;17.20;99.90;;;;;;5080516;28;20503;-42
2023/06/11 06:38:00;;;;;;;8.27;5.75;;;17.30;99.90;;;;;;5080725;28;20055;-42
2023/06/11 06:40:26;;;;;;;8.20;5.25;;;17.40;99.90;;;;;;5073616;28;20027;-42
2023/06/11 06:42:51;;;;;;;10.80;5.80;;;17.50;99.90;;;;;;5073734;28;20024;-42
2023/06/11 06:45:17;;;;;;;11.40;6.15;;;17.60;99.90;;;;;;5069301;28;20012;-43
2023/06/11 06:47:42;;;;;;;13.63;6.22;;;17.80;99.90;;;;;;5070012;28;20025;-43
2023/06/11 06:50:08;;;;;;;13.35;6.32;;;17.90;99.90;;;;;;5071777;28;20406;-45
2023/06/11 06:52:34;;;;;;;13.05;5.97;;;18.00;99.90;;;;;;5089854;28;20024;-42
2023/06/11 06:54:59;;;;;;;11.45;6.28;;;18.00;99.90;;;;;;5080210;28;20024;-42
2023/06/11 06:57:25;;;;;;;13.32;5.80;;;18.10;99.90;;;;;;5068502;28;20035;-45
2023/06/11 06:59:50;;;;;;;7.53;5.18;;;18.20;99.90;;;;;;5069980;28;20024;-44
2023/06/11 07:02:16;;;;;;;12.38;5.78;;;18.30;99.90;;;;;;5074816;28;20039;-45
2023/06/11 07:04:42;;;;;;;8.88;5.00;;;18.40;99.90;;;;;;5079813;28;20358;-42
2023/06/11 07:07:07;;;;;;;8.70;6.07;;;18.60;99.90;;;;;;5078068;28;20382;-43
2023/06/11 07:09:33;;;;;;;9.20;6.18;;;18.80;99.90;;;;;;5077064;28;20032;-45
2023/06/11 07:11:58;;;;;;;9.18;5.63;;;19.00;99.90;;;;;;5074658;28;20478;-42
2023/06/11 07:14:24;;;;;;;16.55;5.65;;;19.20;99.90;;;;;;5077619;28;20028;-44
2023/06/11 07:16:50;;;;;;;9.70;6.00;;;19.20;99.90;;;;;;5078490;28;20048;-42
2023/06/11 07:19:15;;;;;;;13.35;5.60;;;19.30;99.90;;;;;;5079302;28;20379;-43
2023/06/11 07:21:41;;;;;;;7.07;5.50;;;19.40;99.90;;;;;;5081593;28;20032;-43
2023/06/11 07:24:07;;;;;;;8.93;5.65;;;19.60;99.90;;;;;;5078364;28;20034;-43
2023/06/11 07:26:33;;;;;;;11.65;5.85;;;19.70;99.90;;;;;;5071462;28;20520;-43
2023/06/11 07:28:59;;;;;;;12.98;6.07;;;19.80;99.90;;;;;;5067634;28;20020;-45
2023/06/11 07:31:25;;;;;;;10.40;5.63;;;20.00;99.90;;;;;;5068913;28;20016;-47
2023/06/11 07:33:50;;;;;;;5.97;5.00;;;20.00;99.90;;;;;;5069046;28;20732;-42
2023/06/11 07:36:16;;;;;;;8.60;5.43;;;20.20;99.90;;;;;;5068490;28;20528;-43
2023/06/11 07:38:45;;;;;;;14.93;5.60;;;20.30;99.90;;;;;;5068985;28;20064;-42
2023/06/11 07:41:12;;;;;;;11.38;6.10;;;20.40;99.90;;;;;;5065543;28;20024;-44
2023/06/11 07:43:38;;;;;;;11.45;5.28;;;20.70;99.90;;;;;;5070471;28;20035;-43
2023/06/11 07:46:04;;;;;;;8.70;5.63;;;20.90;99.30;;;;;;5071163;28;20028;-44
2023/06/11 07:48:30;;;;;;;8.50;5.25;;;21.00;98.80;;;;;;5074417;28;20502;-42
2023/06/11 07:50:57;;;;;;;8.10;5.22;;;21.30;97.30;;;;;;5066701;28;20017;-42
2023/06/11 07:53:23;;;;;;;12.48;5.65;;;21.40;98.00;;;;;;5070353;28;20020;-42
2023/06/11 07:55:55;;;;;;;15.70;5.63;;;21.60;97.90;;;;;;5063610;28;20060;-43
2023/06/11 07:58:21;;;;;;;15.50;6.18;;;21.70;97.40;;;;;;5061436;28;20024;-42
2023/06/11 08:00:47;;;;;;;8.60;5.65;;;21.80;95.80;;;;;;5057814;28;20037;-42
2023/06/11 08:03:13;;;;;;;14.50;5.88;;;22.00;96.40;;;;;;5077728;28;20036;-43
2023/06/11 08:05:39;;;;;;;9.68;5.55;;;22.30;96.10;;;;;;5081618;28;20024;-43
2023/06/11 08:08:05;;;;;;;7.82;6.30;;;22.60;94.80;;;;;;5067654;28;20039;-43
2023/06/11 08:10:32;;;;;;;15.00;5.85;;;23.10;93.90;;;;;;5088129;28;20019;-46
2023/06/11 08:12:57;;;;;;;9.05;5.25;;;23.90;93.60;;;;;;5071323;28;20394;-43
2023/06/11 08:15:23;;;;;;;9.85;5.05;;;24.90;91.40;;;;;;5071037;28;20035;-44
2023/06/11 08:17:49;;;;;;;8.43;5.18;;;26.20;88.50;;;;;;5078009;28;20362;-43
2023/06/11 08:20:16;;;;;;;5.30;4.70;;;27.80;81.00;;;;;;5077760;28;20817;-43
2023/06/11 08:22:42;;;;;;;5.35;3.97;;;28.50;78.30;;;;;;5062015;28;20461;-44
2023/06/11 08:25:09;;;;;;;8.57;4.28;;;29.40;74.00;;;;;;5064497;28;20107;-45
2023/06/11 08:27:36;;;;;;;11.07;4.43;;;30.30;73.50;;;;;;5080974;28;20024;-45
2023/06/11 08:30:03;;;;;;;6.05;4.45;;;31.30;66.70;;;;;;5066918;28;20017;-43
2023/06/11 08:32:28;;;;;;;7.45;4.65;;;32.00;63.20;;;;;;5079912;28;20035;-42
2023/06/11 08:34:54;;;;;;;5.00;4.25;;;32.00;62.40;;;;;;5069579;28;20433;-45
2023/06/11 08:37:20;;;;;;;9.23;3.92;;;32.20;61.90;;;;;;5078240;28;20051;-44
2023/06/11 08:39:46;;;;;;;7.45;4.28;;;32.80;59.10;;;;;;5087988;28;20115;-43
2023/06/11 08:42:12;;;;;;;7.97;4.40;;;33.20;59.60;;;;;;5068118;28;20396;-43
2023/06/11 08:44:38;;;;;;;5.30;3.70;;;33.40;58.90;;;;;;5071719;28;20024;-43
2023/06/11 08:47:05;;;;;;;8.07;4.28;;;33.90;56.00;;;;;;5075218;28;20029;-44
2023/06/11 08:49:32;;;;;;;7.47;4.80;;;34.40;54.50;;;;;;5074673;28;20052;-43
2023/06/11 08:52:07;;;;;;;6.20;4.10;;;34.70;54.20;;;;;;5084830;28;20097;-47
2023/06/11 08:54:33;;;;;;;5.40;3.90;;;35.10;54.60;;;;;;5074249;28;20084;-45
2023/06/11 08:56:59;;;;;;;5.95;4.18;;;35.10;52.00;;;;;;5074552;28;20448;-44
2023/06/11 08:59:25;;;;;;;6.10;3.80;;;35.90;51.30;;;;;;5082522;28;20025;-43
2023/06/11 09:01:51;;;;;;;4.50;3.40;;;36.00;51.40;;;;;;5062006;28;20021;-43
2023/06/11 09:04:23;;;;;;;8.90;3.58;;;36.60;50.10;;;;;;5083003;28;20025;-44
2023/06/11 09:06:56;;;;;;;9.32;4.07;;;37.20;47.70;;;;;;5072699;28;20028;-45
2023/06/11 09:09:22;;;;;;;5.18;3.72;;;37.30;47.50;;;;;;5084332;28;20012;-44
2023/06/11 09:11:48;;;;;;;5.50;3.83;;;37.90;46.90;;;;;;5066918;28;20024;-46
2023/06/11 09:14:14;;;;;;;5.95;3.65;;;38.10;46.20;;;;;;5082319;28;20024;-44
2023/06/11 09:16:42;;;;;;;5.72;3.20;;;38.10;44.40;;;;;;5080426;28;20032;-47
2023/06/11 09:19:12;;;;;;;5.73;3.30;;;37.90;46.90;;;;;;5078603;28;20024;-44
2023/06/11 09:21:38;;;;;;;7.68;3.35;;;38.70;43.90;;;;;;5082439;28;20290;-45
2023/06/11 09:24:10;;;;;;;5.55;3.40;;;39.00;44.00;;;;;;5075919;28;20012;-44
2023/06/11 09:26:36;;;;;;;6.15;3.30;;;39.00;42.50;;;;;;5080179;28;20017;-45
2023/06/11 09:29:07;;;;;;;4.00;3.28;;;39.00;41.70;;;;;;5066428;28;20518;-43
2023/06/11 09:31:33;;;;;;;4.53;2.97;;;39.10;42.40;;;;;;5063535;28;20052;-44
2023/06/11 09:34:03;;;;;;;6.40;3.40;;;39.30;41.50;;;;;;5064721;28;20607;-45
2023/06/11 09:36:31;;;;;;;6.47;3.20;;;40.00;39.90;;;;;;5079221;28;20024;-45
2023/06/11 09:38:57;;;;;;;8.83;3.53;;;39.90;40.90;;;;;;5079579;28;20039;-44
2023/06/11 09:41:23;;;;;;;6.18;3.47;;;39.80;38.80;;;;;;5069678;28;20027;-45
2023/06/11 09:43:53;;;;;;;4.72;3.00;;;40.00;37.70;;;;;;5082113;28;20100;-44
2023/06/11 09:46:21;;;;;;;5.18;3.28;;;39.60;40.20;;;;;;5075401;28;20151;-45
2023/06/11 09:48:48;;;;;;;6.90;3.30;;;39.60;39.50;;;;;;5087062;28;20021;-43
2023/06/11 09:51:21;;;;;;;6.32;3.05;;;39.60;39.90;;;;;;5079615;28;20262;-43
2023/06/11 09:53:51;;;;;;;4.05;2.78;;;40.00;39.50;;;;;;5090425;28;20482;-44
2023/06/11 09:56:18;;;;;;;4.93;3.60;;;40.60;38.00;;;;;;5081731;28;20472;-44
2023/06/11 09:58:49;;;;;;;5.75;3.10;;;40.90;37.60;;;;;;5081369;28;20170;-47
2023/06/11 10:01:16;;;;;;;5.60;3.08;;;40.60;37.90;;;;;;5080001;28;20028;-44
2023/06/11 10:03:42;;;;;;;3.97;3.50;;;40.30;37.90;;;;;;5078381;28;20017;-45
2023/06/11 10:06:16;;;;;;;6.82;2.80;;;40.60;37.10;;;;;;5071070;28;20551;-43
2023/06/11 10:08:45;;;;;;;8.20;3.60;;;41.10;37.40;;;;;;5091006;28;20031;-43
2023/06/11 10:11:11;;;;;;;4.65;2.90;;;41.20;36.60;;;;;;5072102;28;20363;-44
2023/06/11 10:13:37;;;;;;;6.72;3.45;;;40.90;36.20;;;;;;5089828;28;20039;-43
2023/06/11 10:16:08;;;;;;;5.35;3.40;;;40.50;37.20;;;;;;5072121;28;20063;-44
2023/06/11 10:18:34;;;;;;;6.78;3.42;;;40.90;36.70;;;;;;5084800;28;20020;-43
2023/06/11 10:21:02;;;;;;;6.07;3.08;;;40.60;37.30;;;;;;5081251;28;20028;-44
2023/06/11 10:23:41;;;;;;;7.30;3.00;;;40.70;36.40;;;;;;5083268;28;20144;-45
2023/06/11 10:26:12;;;;;;;8.15;3.50;;;41.40;36.70;;;;;;5079551;28;20031;-44
2023/06/11 10:28:48;;;;;;;4.95;3.15;;;40.90;35.90;;;;;;5084581;28;20085;-44
2023/06/11 10:31:25;;;;;;;6.88;3.33;;;40.90;36.50;;;;;;5078386;28;20070;-44
2023/06/11 10:33:51;;;;;;;5.57;2.80;;;40.70;36.40;;;;;;5070627;28;20472;-44
2023/06/11 10:36:34;;;;;;;7.28;3.20;;;41.10;35.30;;;;;;5068316;28;20100;-45
2023/06/11 10:39:09;;;;;;;6.10;2.92;;;41.30;35.20;;;;;;5070562;28;20456;-44
2023/06/11 10:41:42;;;;;;;9.23;3.33;;;41.70;36.00;;;;;;5070466;28;20051;-47
2023/06/11 10:44:10;;;;;;;3.63;2.88;;;41.10;36.20;;;;;;5070649;28;20020;-45
2023/06/11 10:46:50;;;;;;;3.63;3.30;;;41.00;36.70;;;;;;5074662;28;20021;-44
2023/06/11 10:49:19;;;;;;;4.75;3.33;;;41.70;35.80;;;;;;5070207;28;20162;-45
2023/06/11 10:51:47;;;;;;;4.60;3.20;;;41.90;35.60;;;;;;5078561;28;20066;-43
2023/06/11 10:54:27;;;;;;;4.77;3.13;;;41.60;36.90;;;;;;5078261;28;20026;-44
2023/06/11 10:56:53;;;;;;;4.65;2.97;;;41.60;36.80;;;;;;5069843;28;20073;-44
2023/06/11 10:59:20;;;;;;;4.82;3.10;;;41.70;35.40;;;;;;5088391;28;20115;-45
2023/06/11 11:01:46;;;;;;;5.65;3.38;;;41.50;35.10;;;;;;5081047;28;20038;-44
2023/06/11 11:04:12;;;;;;;5.82;3.30;;;40.60;36.80;;;;;;5087214;28;20020;-44
2023/06/11 11:06:39;;;;;;;5.78;3.00;;;40.50;37.50;;;;;;5072978;28;20024;-44
2023/06/11 11:09:05;;;;;;;5.05;2.88;;;41.00;36.10;;;;;;5087328;28;20381;-44
2023/06/11 11:11:32;;;;;;;6.28;2.80;;;41.30;35.90;;;;;;5076194;28;20012;-44
2023/06/11 11:13:59;;;;;;;5.18;3.00;;;41.80;35.80;;;;;;5059988;28;20024;-43
2023/06/11 11:16:25;;;;;;;3.05;2.60;;;41.90;34.90;;;;;;5085898;28;20197;-44
2023/06/11 11:18:52;;;;;;;5.03;2.88;;;41.40;34.70;;;;;;5085757;28;20091;-44
2023/06/11 11:21:18;;;;;;;6.78;3.05;;;41.50;35.50;;;;;;5075732;28;20067;-44
2023/06/11 11:23:48;;;;;;;4.90;3.08;;;41.70;35.50;;;;;;5084402;28;20028;-45
2023/06/11 11:26:14;;;;;;;5.10;2.80;;;41.70;34.30;;;;;;5077981;28;20021;-44
2023/06/11 11:28:40;;;;;;;4.80;2.78;;;41.30;34.90;;;;;;5068365;28;20542;-45
2023/06/11 11:31:07;;;;;;;7.35;3.28;;;40.60;35.50;;;;;;5079223;28;20066;-44
2023/06/11 11:33:35;;;;;;;8.63;2.88;;;40.40;34.90;;;;;;5080184;28;20020;-45
2023/06/11 11:36:03;;;;;;;5.55;3.22;;;39.90;36.00;;;;;;5077623;28;20089;-44
2023/06/11 11:38:38;;;;;;;3.80;2.72;;;40.10;36.40;;;;;;5081254;28;20024;-44
2023/06/11 11:41:09;;;;;;;6.40;2.90;;;40.20;35.30;;;;;;5074880;28;20077;-45
2023/06/11 11:43:42;;;;;;;4.95;2.65;;;41.30;34.40;;;;;;5078294;28;20406;-45
2023/06/11 11:46:18;;;;;;;5.00;3.00;;;40.70;33.80;;;;;;5076629;28;20024;-44
2023/06/11 11:48:45;;;;;;;4.22;3.00;;;40.80;34.50;;;;;;5079461;28;20115;-45
2023/06/11 11:51:13;;;;;;;3.45;3.15;;;40.30;35.00;;;;;;5072875;28;20748;-44
2023/06/11 11:53:40;;;;;;;6.80;3.43;;;40.10;35.00;;;;;;5070942;28;20449;-44
2023/06/11 11:56:06;;;;;;;4.90;3.20;;;40.00;36.00;;;;;;5074384;28;20106;-43
2023/06/11 11:58:53;;;;;;;8.45;2.97;;;39.50;35.60;;;;;;5075980;28;20028;-43
2023/06/11 12:01:27;;;;;;;5.20;3.15;;;38.80;36.90;;;;;;5071184;28;20036;-43
2023/06/11 12:04:04;;;;;;;4.43;3.25;;;37.90;36.90;;;;;;5067448;28;20016;-43
2023/06/11 12:06:30;;;;;;;4.85;3.30;;;37.90;37.20;;;;;;5069633;28;20016;-42
2023/06/11 12:08:56;;;;;;;5.35;3.38;;;37.30;37.40;;;;;;5068308;28;20016;-50
2023/06/11 12:11:22;;;;;;;6.97;3.58;;;36.40;38.50;;;;;;5072422;28;20019;-42
2023/06/11 12:13:47;;;;;;;5.95;3.67;;;36.00;38.00;;;;;;5068245;28;20024;-43
2023/06/11 12:16:14;;;;;;;5.80;3.50;;;35.60;39.10;;;;;;5067821;28;20028;-44
2023/06/11 12:18:40;;;;;;;7.13;3.50;;;35.40;39.50;;;;;;5077172;28;20497;-43
2023/06/11 12:21:07;;;;;;;4.53;3.33;;;34.90;37.60;;;;;;5066984;28;20040;-43
2023/06/11 12:23:33;;;;;;;4.63;3.72;;;34.80;38.80;;;;;;5080101;28;20028;-43
2023/06/11 12:26:03;;;;;;;4.07;3.42;;;34.60;40.70;;;;;;5079350;28;20064;-43
2023/06/11 12:28:28;;;;;;;10.35;3.60;;;34.50;40.00;;;;;;5081943;28;20090;-43
2023/06/11 12:30:54;;;;;;;6.82;3.30;;;34.30;40.80;;;;;;5078569;28;20036;-43
2023/06/11 12:33:20;;;;;;;6.22;3.55;;;34.20;40.20;;;;;;5079042;28;20020;-44
2023/06/11 12:35:46;;;;;;;6.38;4.13;;;33.90;42.00;;;;;;5079256;28;20021;-43
2023/06/11 12:38:13;;;;;;;5.30;4.18;;;33.90;40.50;;;;;;5077759;28;20017;-43
2023/06/11 12:40:38;;;;;;;7.97;4.60;;;33.90;40.60;;;;;;5077029;28;20473;-43
2023/06/11 12:43:04;;;;;;;4.22;3.83;;;34.00;41.70;;;;;;5076846;28;20031;-43
2023/06/11 12:45:32;;;;;;;5.35;3.85;;;33.90;41.60;;;;;;5076173;28;20119;-43